Portada
METAR-TAF:

METAR-TAF

Aeroports :

Nosy Be, Madagascar

latitud: 13-19S, longitud: 048-19E, altitud: 10 m

Observació

L'informe es va fer fa 35 minuts, a les 12:00 UTC
Vent 6 kt del Oest
Temperatura 31°C
Pressió 1012 hPa
Visibilitat 10 km o més
Escasses núvols a una alçada de 2000 ft

METAR: FMNN 301200Z 28006KT 9999 FEW020 31/// Q1012

Hora: 15:35 (12:35 UTC)

Pronòstic

L'informe es va fer fa 1 hora i 35 minuts, a les 11:00 UTC
Pronòstic vàlid del 30 a les 12 UTC al 31 a les 12 UTC
Vent 4 kt amb direcció variable
Visibilitat 10 km o més
Núvols disperses a una alçada de 2000 ft

TAF: FMNN 301100Z 3012/3112 VRB04KT 9999 SCT020

Observacions i pronòstics meteorològics de més de 4000 aeroports (METAR i TAF).

Les estacions disponibles són els punts grocs i vermells al mapa.

Posi el ratolí al punt desitjat per veure el nom de l'estació.

Feu clic per veure les observacions i els pronòstics meteorològics.

Per canviar el mapa: feu clic els botons verds amb una creu de color negre per apropar; al botó verd amb un guió per allunyar la imatge; o en les fletxes verdes per a mapes adjacents.


METAR-TAF: